Time;durP1;ratioP1;P1;durP2;ratioP2;P2;SDS_P1;SDS_P2;PMS_P1;PMS_P2;Temp;Humidity;BMP_temperature;BMP_pressure;BME280_temperature;BME280_humidity;BME280_pressure;Samples;Min_cycle;Max_cycle;Signal;HPM_P1;HPM_P2
2023/05/15 00:02:06;;;;;;;50.88;35.70;;;;;;;;;;5014066;28;20058;-75
2023/05/15 00:04:32;;;;;;;55.17;36.75;;;;;;;;;;5014456;28;20156;-75
2023/05/15 00:06:58;;;;;;;52.63;34.75;;;;;;;;;;5014616;28;20042;-75
2023/05/15 00:09:24;;;;;;;57.45;37.13;;;;;;;;;;5014635;28;20404;-75
2023/05/15 00:11:50;;;;;;;57.03;36.47;;;;;;;;;;5013254;28;20048;-75
2023/05/15 00:14:16;;;;;;;52.75;35.42;;;;;;;;;;5013713;28;20060;-75
2023/05/15 00:16:42;;;;;;;55.67;36.47;;;;;;;;;;5013875;28;20045;-76
2023/05/15 00:19:08;;;;;;;54.20;35.28;;;;;;;;;;5013299;28;20399;-74
2023/05/15 00:21:34;;;;;;;50.83;33.40;;;;;;;;;;5013015;28;20088;-74
2023/05/15 00:24:01;;;;;;;49.42;32.85;;;;;;;;;;4996375;28;20454;-75
2023/05/15 00:26:27;;;;;;;46.63;31.98;;;;;;;;;;5013378;28;20046;-75
2023/05/15 00:28:53;;;;;;;45.17;31.10;;;;;;;;;;4995249;28;20038;-75
2023/05/15 00:31:19;;;;;;;45.13;32.30;;;;;;;;;;4996468;28;20077;-75
2023/05/15 00:33:45;;;;;;;48.15;32.17;;;;;;;;;;5014108;28;20077;-76
2023/05/15 00:36:11;;;;;;;46.13;32.88;;;;;;;;;;5013732;28;20042;-76
2023/05/15 00:38:37;;;;;;;43.20;30.08;;;;;;;;;;5013231;28;20049;-76
2023/05/15 00:41:04;;;;;;;48.22;32.50;;;;;;;;;;5013784;28;20049;-76
2023/05/15 00:43:30;;;;;;;43.80;30.75;;;;;;;;;;4996161;28;20053;-76
2023/05/15 00:45:57;;;;;;;47.67;31.58;;;;;;;;;;5012427;28;20482;-76
2023/05/15 00:48:24;;;;;;;46.70;32.05;;;;;;;;;;5012222;28;20387;-75
2023/05/15 00:50:50;;;;;;;49.35;33.10;;;;;;;;;;5013703;28;20050;-75
2023/05/15 00:53:17;;;;;;;45.67;31.67;;;;;;;;;;4979355;28;20042;-75
2023/05/15 00:55:44;;;;;;;44.92;30.65;;;;;;;;;;5013786;28;20107;-77
2023/05/15 00:58:11;;;;;;;45.70;30.42;;;;;;;;;;4979449;28;20045;-76
2023/05/15 01:00:37;;;;;;;44.17;31.17;;;;;;;;;;5009792;28;20058;-76
2023/05/15 01:03:04;;;;;;;44.72;31.10;;;;;;;;;;4976809;28;20054;-75
2023/05/15 01:05:30;;;;;;;46.05;32.30;;;;;;;;;;4995471;28;20050;-75
2023/05/15 01:08:15;;;;;;;44.40;30.88;;;;;;;;;;5011953;28;20052;-76
2023/05/15 01:10:42;;;;;;;45.03;31.20;;;;;;;;;;5012341;28;20056;-76
2023/05/15 01:13:09;;;;;;;48.42;30.05;;;;;;;;;;5013533;28;20076;-76
2023/05/15 01:15:35;;;;;;;45.47;31.48;;;;;;;;;;5011619;28;20034;-76
2023/05/15 01:18:02;;;;;;;46.55;30.55;;;;;;;;;;4979210;28;20041;-76
2023/05/15 01:20:28;;;;;;;50.50;32.15;;;;;;;;;;5011991;28;20096;-76
2023/05/15 01:23:15;;;;;;;45.05;29.90;;;;;;;;;;4994872;28;20041;-76
2023/05/15 01:25:52;;;;;;;49.80;32.08;;;;;;;;;;5013272;28;20045;-74
2023/05/15 01:28:21;;;;;;;43.17;30.52;;;;;;;;;;5011674;28;20125;-74
2023/05/15 01:30:49;;;;;;;48.30;31.75;;;;;;;;;;5012254;28;20426;-74
2023/05/15 01:33:18;;;;;;;54.58;32.85;;;;;;;;;;4995660;28;20038;-75
2023/05/15 01:35:50;;;;;;;48.22;32.25;;;;;;;;;;5011600;28;20394;-74
2023/05/15 01:38:36;;;;;;;51.53;33.45;;;;;;;;;;5010228;28;20050;-74
2023/05/15 01:41:10;;;;;;;52.53;34.65;;;;;;;;;;4978066;28;20491;-74
2023/05/15 01:43:39;;;;;;;49.05;33.72;;;;;;;;;;4993755;28;20464;-74
2023/05/15 01:46:05;;;;;;;53.17;35.17;;;;;;;;;;4994998;28;20050;-75
2023/05/15 01:48:33;;;;;;;48.55;32.65;;;;;;;;;;4979070;28;20092;-76
2023/05/15 01:51:02;;;;;;;51.13;32.88;;;;;;;;;;4993913;28;20049;-76
2023/05/15 01:53:30;;;;;;;53.38;34.00;;;;;;;;;;5012319;28;20399;-76
2023/05/15 01:55:56;;;;;;;52.60;34.03;;;;;;;;;;5012444;28;20541;-76
2023/05/15 01:58:24;;;;;;;51.35;33.30;;;;;;;;;;5011623;28;20099;-76
2023/05/15 02:00:51;;;;;;;52.85;33.65;;;;;;;;;;5012527;28;20050;-76
2023/05/15 02:03:17;;;;;;;53.70;34.75;;;;;;;;;;5012115;28;20144;-76
2023/05/15 02:05:44;;;;;;;48.95;33.25;;;;;;;;;;4995410;28;20046;-76
2023/05/15 02:08:12;;;;;;;52.42;33.80;;;;;;;;;;5012440;28;20081;-76
2023/05/15 02:10:38;;;;;;;53.35;34.30;;;;;;;;;;4993204;28;20060;-76
2023/05/15 02:13:05;;;;;;;50.53;33.25;;;;;;;;;;5012653;28;20038;-74
2023/05/15 02:15:31;;;;;;;55.65;34.58;;;;;;;;;;4998655;28;20129;-74
2023/05/15 02:17:57;;;;;;;50.70;33.47;;;;;;;;;;4997508;28;20050;-76
2023/05/15 02:20:23;;;;;;;48.50;32.33;;;;;;;;;;5013107;28;20046;-75
2023/05/15 02:22:49;;;;;;;51.15;33.47;;;;;;;;;;5011456;28;20038;-75
2023/05/15 02:25:15;;;;;;;48.50;32.47;;;;;;;;;;5011828;28;20053;-76
2023/05/15 02:27:50;;;;;;;47.97;32.03;;;;;;;;;;5012794;28;20050;-76
2023/05/15 02:30:24;;;;;;;49.60;32.60;;;;;;;;;;4994371;28;20088;-76
2023/05/15 02:33:09;;;;;;;48.35;33.15;;;;;;;;;;5011706;28;20053;-76
2023/05/15 02:35:39;;;;;;;47.13;31.25;;;;;;;;;;4995412;28;20053;-76
2023/05/15 02:38:11;;;;;;;50.53;32.90;;;;;;;;;;4994805;28;20041;-76
2023/05/15 02:40:37;;;;;;;50.85;32.75;;;;;;;;;;5010084;28;20141;-76
2023/05/15 02:43:04;;;;;;;49.97;32.78;;;;;;;;;;5014190;28;20037;-76
2023/05/15 02:45:31;;;;;;;54.25;33.38;;;;;;;;;;4982629;28;20053;-76
2023/05/15 02:47:58;;;;;;;51.83;30.88;;;;;;;;;;4982141;28;20053;-76
2023/05/15 02:50:24;;;;;;;48.63;31.77;;;;;;;;;;4998696;28;20387;-76
2023/05/15 02:52:50;;;;;;;50.63;31.92;;;;;;;;;;4998549;28;20463;-76
2023/05/15 02:55:16;;;;;;;48.00;31.27;;;;;;;;;;5016104;28;20414;-76
2023/05/15 02:57:42;;;;;;;46.90;31.63;;;;;;;;;;4980053;28;20049;-76
2023/05/15 03:00:12;;;;;;;46.13;28.63;;;;;;;;;;5012730;28;20482;-76
2023/05/15 03:02:38;;;;;;;43.85;27.83;;;;;;;;;;5015483;28;20413;-75
2023/05/15 03:05:04;;;;;;;49.47;29.60;;;;;;;;;;5015705;28;20132;-76
2023/05/15 03:07:30;;;;;;;47.88;32.22;;;;;;;;;;4997886;28;20412;-75
2023/05/15 03:09:56;;;;;;;50.28;30.90;;;;;;;;;;4997956;28;20045;-75
2023/05/15 03:12:22;;;;;;;48.85;33.25;;;;;;;;;;4997643;28;20052;-75
2023/05/15 03:14:48;;;;;;;51.15;33.30;;;;;;;;;;4996569;28;20495;-76
2023/05/15 03:17:14;;;;;;;48.30;31.00;;;;;;;;;;4996151;28;20046;-76
2023/05/15 03:19:40;;;;;;;48.65;28.98;;;;;;;;;;5015447;28;20050;-75
2023/05/15 03:22:06;;;;;;;44.90;29.88;;;;;;;;;;5014158;28;20033;-74
2023/05/15 03:24:32;;;;;;;49.15;29.33;;;;;;;;;;5015284;28;20056;-75
2023/05/15 03:26:58;;;;;;;48.35;29.73;;;;;;;;;;4998149;28;20042;-74
2023/05/15 03:29:24;;;;;;;45.90;28.77;;;;;;;;;;5014844;28;20046;-74
2023/05/15 03:31:50;;;;;;;43.63;28.48;;;;;;;;;;5015323;28;20411;-74
2023/05/15 03:34:16;;;;;;;42.95;29.05;;;;;;;;;;4997411;28;20046;-75
2023/05/15 03:36:42;;;;;;;45.72;29.20;;;;;;;;;;4995898;28;20049;-74
2023/05/15 03:39:08;;;;;;;46.92;29.52;;;;;;;;;;5014729;28;20100;-74
2023/05/15 03:41:34;;;;;;;37.75;24.83;;;;;;;;;;5014729;28;20092;-75
2023/05/15 03:44:00;;;;;;;36.10;24.33;;;;;;;;;;4980702;28;20049;-75
2023/05/15 03:46:26;;;;;;;35.17;24.08;;;;;;;;;;4997587;28;20548;-75
2023/05/15 03:48:53;;;;;;;35.15;23.60;;;;;;;;;;4979011;28;20100;-75
2023/05/15 03:51:19;;;;;;;32.63;22.48;;;;;;;;;;5013146;28;20045;-74
2023/05/15 03:53:45;;;;;;;32.80;22.55;;;;;;;;;;4994220;28;20052;-74
2023/05/15 03:56:11;;;;;;;32.88;21.92;;;;;;;;;;5014704;28;20042;-75
2023/05/15 03:58:38;;;;;;;32.42;22.58;;;;;;;;;;4979535;28;20090;-75
2023/05/15 04:01:04;;;;;;;34.08;22.60;;;;;;;;;;5013815;28;20125;-75
2023/05/15 04:03:30;;;;;;;31.67;22.77;;;;;;;;;;5012936;28;20080;-74
2023/05/15 04:05:56;;;;;;;30.17;22.13;;;;;;;;;;5012249;28;20071;-75
2023/05/15 04:08:22;;;;;;;32.25;23.17;;;;;;;;;;5013626;28;20450;-74
2023/05/15 04:10:48;;;;;;;30.85;22.48;;;;;;;;;;5014391;28;20042;-75
2023/05/15 04:13:14;;;;;;;31.60;23.40;;;;;;;;;;5013899;28;20407;-75
2023/05/15 04:15:40;;;;;;;27.98;22.88;;;;;;;;;;5013937;28;20054;-75
2023/05/15 04:18:06;;;;;;;29.98;22.90;;;;;;;;;;5014005;28;20046;-75
2023/05/15 04:20:32;;;;;;;29.08;22.10;;;;;;;;;;5014269;28;20061;-75
2023/05/15 04:22:59;;;;;;;29.08;22.75;;;;;;;;;;4994949;28;20056;-75
2023/05/15 04:25:26;;;;;;;26.33;21.55;;;;;;;;;;5013789;28;20046;-75
2023/05/15 04:27:52;;;;;;;29.02;22.95;;;;;;;;;;4996203;28;20034;-75
2023/05/15 04:30:18;;;;;;;25.65;21.33;;;;;;;;;;5014044;28;20132;-75
2023/05/15 04:32:44;;;;;;;26.33;21.35;;;;;;;;;;5014278;28;20088;-75
2023/05/15 04:35:12;;;;;;;27.58;21.05;;;;;;;;;;5013938;28;20102;-75
2023/05/15 04:37:38;;;;;;;26.25;19.23;;;;;;;;;;4996408;28;20374;-75
2023/05/15 04:40:08;;;;;;;22.80;18.60;;;;;;;;;;4996094;28;20128;-75
2023/05/15 04:42:34;;;;;;;21.20;18.05;;;;;;;;;;4995345;28;20038;-75
2023/05/15 04:45:01;;;;;;;20.35;17.10;;;;;;;;;;4996258;28;20100;-75
2023/05/15 04:47:27;;;;;;;21.20;17.85;;;;;;;;;;4996054;28;20053;-75
2023/05/15 04:49:53;;;;;;;21.15;17.67;;;;;;;;;;5013940;28;20115;-75
2023/05/15 04:52:19;;;;;;;23.92;17.88;;;;;;;;;;5012224;28;20589;-75
2023/05/15 04:54:46;;;;;;;22.70;17.33;;;;;;;;;;5013706;28;20076;-74
2023/05/15 04:57:12;;;;;;;20.73;18.10;;;;;;;;;;5013398;28;20556;-75
2023/05/15 04:59:39;;;;;;;22.52;17.77;;;;;;;;;;4995602;28;20077;-75
2023/05/15 05:02:05;;;;;;;21.30;17.85;;;;;;;;;;5013229;28;20065;-75
2023/05/15 05:04:31;;;;;;;22.42;17.27;;;;;;;;;;5013138;28;20058;-75
2023/05/15 05:06:57;;;;;;;20.83;17.40;;;;;;;;;;5012593;28;20055;-75
2023/05/15 05:09:23;;;;;;;18.35;16.15;;;;;;;;;;5011021;28;20054;-75
2023/05/15 05:11:49;;;;;;;19.60;16.48;;;;;;;;;;4995915;28;20057;-76
2023/05/15 05:14:15;;;;;;;20.63;16.90;;;;;;;;;;5012232;28;20410;-75
2023/05/15 05:16:41;;;;;;;21.67;16.60;;;;;;;;;;5012012;28;20049;-74
2023/05/15 05:19:07;;;;;;;22.48;17.75;;;;;;;;;;5013298;28;20449;-75
2023/05/15 05:21:33;;;;;;;20.00;17.50;;;;;;;;;;5014390;28;20115;-73
2023/05/15 05:23:59;;;;;;;23.67;17.77;;;;;;;;;;4999554;28;20034;-73
2023/05/15 05:26:26;;;;;;;20.45;17.40;;;;;;;;;;5017123;28;20046;-74
2023/05/15 05:28:52;;;;;;;20.30;17.33;;;;;;;;;;5011758;28;20046;-75
2023/05/15 05:31:18;;;;;;;17.80;15.90;;;;;;;;;;5012312;28;20095;-75
2023/05/15 05:33:44;;;;;;;19.65;16.83;;;;;;;;;;5013565;28;20073;-75
2023/05/15 05:36:10;;;;;;;19.48;16.38;;;;;;;;;;5013044;28;20037;-74
2023/05/15 05:38:37;;;;;;;20.63;17.33;;;;;;;;;;4979365;28;20065;-74
2023/05/15 05:41:03;;;;;;;22.63;17.73;;;;;;;;;;4978932;28;20048;-75
2023/05/15 05:43:31;;;;;;;20.85;16.98;;;;;;;;;;5013337;28;20125;-75
2023/05/15 05:45:57;;;;;;;19.40;16.25;;;;;;;;;;4995753;28;20087;-75
2023/05/15 05:48:23;;;;;;;18.85;16.40;;;;;;;;;;5011446;28;20435;-76
2023/05/15 05:50:50;;;;;;;17.75;14.80;;;;;;;;;;5012274;28;20069;-76
2023/05/15 05:53:16;;;;;;;19.55;14.25;;;;;;;;;;5012945;28;20038;-76
2023/05/15 05:55:42;;;;;;;17.27;15.32;;;;;;;;;;5011570;28;20412;-76
2023/05/15 05:58:08;;;;;;;19.70;15.82;;;;;;;;;;5012542;28;20045;-76
2023/05/15 06:00:34;;;;;;;18.55;16.08;;;;;;;;;;5011302;28;20045;-75
2023/05/15 06:03:01;;;;;;;23.38;17.02;;;;;;;;;;5012086;28;20112;-74
2023/05/15 06:05:28;;;;;;;21.65;17.20;;;;;;;;;;5012881;28;20236;-75
2023/05/15 06:07:56;;;;;;;24.95;17.17;;;;;;;;;;5012540;28;20117;-76
2023/05/15 06:10:22;;;;;;;20.15;17.00;;;;;;;;;;4995048;28;20104;-76
2023/05/15 06:12:48;;;;;;;19.90;15.88;;;;;;;;;;4995080;28;20398;-76
2023/05/15 06:15:15;;;;;;;19.55;16.42;;;;;;;;;;5012051;28;20488;-74
2023/05/15 06:17:41;;;;;;;20.65;16.75;;;;;;;;;;5013904;28;20145;-75
2023/05/15 06:20:08;;;;;;;17.10;14.02;;;;;;;;;;4998471;28;20049;-75
2023/05/15 06:22:35;;;;;;;20.65;14.57;;;;;;;;;;5013627;28;20108;-74
2023/05/15 06:25:02;;;;;;;19.90;14.70;;;;;;;;;;5015069;28;20129;-75
2023/05/15 06:27:29;;;;;;;16.60;14.65;;;;;;;;;;4997103;28;20090;-76
2023/05/15 06:29:55;;;;;;;19.02;14.68;;;;;;;;;;5012346;28;20049;-76
2023/05/15 06:32:21;;;;;;;18.80;14.65;;;;;;;;;;5035849;28;20047;-75
2023/05/15 06:34:47;;;;;;;17.73;12.13;;;;;;;;;;5007799;28;20096;-76
2023/05/15 06:37:13;;;;;;;13.27;11.32;;;;;;;;;;5025462;28;20493;-76
2023/05/15 06:39:39;;;;;;;11.52;10.27;;;;;;;;;;5014324;28;20413;-76
2023/05/15 06:42:05;;;;;;;16.73;10.77;;;;;;;;;;5015847;28;20042;-76
2023/05/15 06:44:32;;;;;;;14.80;12.35;;;;;;;;;;5015262;28;20042;-74
2023/05/15 06:46:58;;;;;;;16.65;11.82;;;;;;;;;;5006626;28;20077;-75
2023/05/15 06:49:24;;;;;;;12.25;10.63;;;;;;;;;;5017930;28;20115;-75
2023/05/15 06:51:51;;;;;;;13.35;10.68;;;;;;;;;;5001439;28;20513;-76
2023/05/15 06:54:17;;;;;;;12.77;10.68;;;;;;;;;;4996229;28;20463;-75
2023/05/15 06:56:43;;;;;;;12.30;9.80;;;;;;;;;;5015512;28;20045;-75
2023/05/15 06:59:09;;;;;;;13.85;9.90;;;;;;;;;;5015201;28;20042;-75
2023/05/15 07:01:35;;;;;;;12.02;9.32;;;;;;;;;;5008757;28;20062;-75
2023/05/15 07:04:01;;;;;;;12.15;9.80;;;;;;;;;;5009133;28;20057;-75
2023/05/15 07:06:30;;;;;;;11.70;9.15;;;;;;;;;;4995403;28;20046;-75
2023/05/15 07:08:56;;;;;;;12.00;9.98;;;;;;;;;;4993630;28;20556;-76
2023/05/15 07:11:22;;;;;;;13.40;10.25;;;;;;;;;;4978192;28;20050;-76
2023/05/15 07:13:48;;;;;;;13.70;10.50;;;;;;;;;;4995171;28;20046;-75
2023/05/15 07:16:14;;;;;;;12.70;9.60;;;;;;;;;;4978227;28;20133;-75
2023/05/15 07:18:41;;;;;;;12.77;9.93;;;;;;;;;;4994805;28;20247;-75
2023/05/15 07:21:07;;;;;;;10.48;8.90;;;;;;;;;;4995462;28;20208;-75
2023/05/15 07:23:33;;;;;;;10.80;8.40;;;;;;;;;;4994990;28;20534;-76
2023/05/15 07:25:59;;;;;;;10.73;9.27;;;;;;;;;;4995648;28;20133;-75
2023/05/15 07:28:25;;;;;;;14.73;9.63;;;;;;;;;;4994412;28;20046;-75
2023/05/15 07:30:51;;;;;;;11.90;9.57;;;;;;;;;;4993945;28;20052;-75
2023/05/15 07:33:17;;;;;;;10.05;8.95;;;;;;;;;;4995211;28;20165;-75
2023/05/15 07:35:43;;;;;;;11.77;9.85;;;;;;;;;;4993967;28;20081;-75
2023/05/15 07:38:09;;;;;;;10.93;9.10;;;;;;;;;;4994520;28;20038;-75
2023/05/15 07:40:35;;;;;;;11.20;7.95;;;;;;;;;;5000206;28;20047;-76
2023/05/15 07:43:02;;;;;;;14.25;8.27;;;;;;;;;;4996727;28;20431;-75
2023/05/15 07:45:28;;;;;;;10.88;8.63;;;;;;;;;;4994091;28;20046;-75
2023/05/15 07:47:54;;;;;;;10.05;8.00;;;;;;;;;;4994656;28;20129;-70
2023/05/15 07:50:20;;;;;;;13.10;9.18;;;;;;;;;;4994129;28;20039;-74
2023/05/15 07:52:46;;;;;;;10.15;8.63;;;;;;;;;;4994712;28;20049;-74
2023/05/15 07:55:12;;;;;;;9.10;8.02;;;;;;;;;;5009604;28;20046;-76
2023/05/15 07:57:41;;;;;;;10.73;8.25;;;;;;;;;;4977287;28;20061;-76
2023/05/15 08:00:10;;;;;;;13.20;7.57;;;;;;;;;;4994869;28;20061;-76
2023/05/15 08:02:37;;;;;;;11.45;8.70;;;;;;;;;;5001658;28;20042;-74
2023/05/15 08:05:03;;;;;;;10.10;8.52;;;;;;;;;;4996691;28;20129;-74
2023/05/15 08:07:31;;;;;;;9.88;8.30;;;;;;;;;;4995874;28;20046;-74
2023/05/15 08:09:58;;;;;;;9.77;8.13;;;;;;;;;;5014006;28;20064;-73
2023/05/15 08:12:24;;;;;;;10.85;8.43;;;;;;;;;;4995456;28;20046;-73
2023/05/15 08:14:50;;;;;;;12.55;8.93;;;;;;;;;;4997295;28;20045;-74
2023/05/15 08:17:17;;;;;;;10.88;8.15;;;;;;;;;;4998646;28;20045;-73
2023/05/15 08:19:43;;;;;;;10.23;8.23;;;;;;;;;;5007858;28;20128;-73
2023/05/15 08:22:09;;;;;;;12.20;8.43;;;;;;;;;;5006308;28;20048;-74
2023/05/15 08:24:35;;;;;;;12.35;8.80;;;;;;;;;;5032269;28;20045;-74
2023/05/15 08:27:01;;;;;;;10.63;8.63;;;;;;;;;;5014860;28;20045;-74
2023/05/15 08:29:27;;;;;;;11.50;8.45;;;;;;;;;;5011747;28;20049;-74
2023/05/15 08:31:53;;;;;;;9.73;8.18;;;;;;;;;;5012029;28;20601;-73
2023/05/15 08:34:20;;;;;;;11.48;7.85;;;;;;;;;;5002085;28;20045;-74
2023/05/15 08:36:46;;;;;;;10.40;7.97;;;;;;;;;;5014121;28;20402;-74
2023/05/15 08:39:12;;;;;;;11.07;8.88;;;;;;;;;;4995384;28;20387;-75
2023/05/15 08:41:42;;;;;;;12.32;7.75;;;;;;;;;;4994709;28;20045;-74
2023/05/15 08:44:09;;;;;;;11.15;8.43;;;;;;;;;;5031613;28;20087;-75
2023/05/15 08:46:35;;;;;;;10.70;8.32;;;;;;;;;;5014700;28;20041;-75
2023/05/15 08:49:09;;;;;;;9.77;7.88;;;;;;;;;;5013247;28;20085;-74
2023/05/15 08:51:35;;;;;;;11.98;7.53;;;;;;;;;;5013192;28;20046;-74
2023/05/15 08:54:01;;;;;;;9.73;7.30;;;;;;;;;;5013177;28;20086;-74
2023/05/15 08:56:28;;;;;;;10.30;7.43;;;;;;;;;;5013097;28;20442;-74
2023/05/15 08:58:54;;;;;;;10.65;7.45;;;;;;;;;;5012529;28;20519;-74
2023/05/15 09:01:20;;;;;;;10.00;7.20;;;;;;;;;;5012730;28;20049;-74
2023/05/15 09:03:46;;;;;;;10.30;7.40;;;;;;;;;;5012863;28;20093;-74
2023/05/15 09:06:13;;;;;;;10.60;7.88;;;;;;;;;;5011685;28;20045;-74
2023/05/15 09:08:40;;;;;;;11.13;7.90;;;;;;;;;;5011512;28;20053;-74
2023/05/15 09:11:07;;;;;;;10.60;7.00;;;;;;;;;;4979037;28;20132;-74
2023/05/15 09:13:33;;;;;;;8.18;6.80;;;;;;;;;;5011473;28;20093;-74
2023/05/15 09:15:59;;;;;;;9.52;6.90;;;;;;;;;;4995164;28;20046;-74
2023/05/15 09:18:26;;;;;;;10.18;6.97;;;;;;;;;;5011409;28;20088;-74
2023/05/15 09:20:52;;;;;;;11.55;6.22;;;;;;;;;;5009531;28;20042;-74
2023/05/15 09:23:25;;;;;;;9.45;6.38;;;;;;;;;;5010385;28;20056;-73
2023/05/15 09:25:53;;;;;;;9.68;6.88;;;;;;;;;;4978732;28;20046;-74
2023/05/15 09:28:27;;;;;;;8.60;7.00;;;;;;;;;;5011736;28;20053;-74
2023/05/15 09:30:57;;;;;;;8.93;6.50;;;;;;;;;;5011410;28;20050;-74
2023/05/15 09:33:28;;;;;;;9.43;6.10;;;;;;;;;;4994001;28;20068;-75
2023/05/15 09:35:54;;;;;;;11.70;7.70;;;;;;;;;;5010093;28;20054;-75
2023/05/15 09:38:20;;;;;;;8.98;7.32;;;;;;;;;;5012394;28;20042;-75
2023/05/15 09:40:46;;;;;;;9.02;6.50;;;;;;;;;;5010847;28;20207;-74
2023/05/15 09:43:12;;;;;;;10.50;7.15;;;;;;;;;;5011070;28;20501;-74
2023/05/15 09:45:38;;;;;;;10.68;7.20;;;;;;;;;;5010340;28;20054;-74
2023/05/15 09:48:05;;;;;;;10.57;6.35;;;;;;;;;;5011223;28;20402;-75
2023/05/15 09:50:35;;;;;;;11.10;6.25;;;;;;;;;;4978579;28;20156;-74
2023/05/15 09:53:01;;;;;;;9.27;6.80;;;;;;;;;;5012624;28;20056;-73
2023/05/15 09:55:27;;;;;;;9.73;6.55;;;;;;;;;;4982226;28;20046;-73
2023/05/15 09:58:07;;;;;;;7.60;6.25;;;;;;;;;;5014956;28;20115;-73
2023/05/15 10:00:34;;;;;;;10.85;6.70;;;;;;;;;;5004152;28;20053;-73
2023/05/15 10:03:04;;;;;;;10.57;6.95;;;;;;;;;;5006149;28;20062;-73
2023/05/15 10:05:30;;;;;;;9.57;6.38;;;;;;;;;;5017581;28;20136;-73
2023/05/15 10:07:58;;;;;;;8.63;6.18;;;;;;;;;;5018050;28;20548;-73
2023/05/15 10:10:25;;;;;;;9.52;5.93;;;;;;;;;;5034544;28;20351;-74
2023/05/15 10:12:51;;;;;;;7.38;6.15;;;;;;;;;;5018230;28;20034;-74
2023/05/15 10:15:18;;;;;;;7.78;6.40;;;;;;;;;;5018081;28;20401;-74
2023/05/15 10:17:47;;;;;;;9.50;6.28;;;;;;;;;;5018338;28;20060;-74
2023/05/15 10:20:13;;;;;;;8.48;5.63;;;;;;;;;;5017746;28;20041;-75
2023/05/15 10:22:41;;;;;;;8.20;5.75;;;;;;;;;;5034541;28;20044;-75
2023/05/15 10:25:13;;;;;;;7.07;5.38;;;;;;;;;;5035769;28;20092;-73
2023/05/15 10:27:43;;;;;;;7.22;5.15;;;;;;;;;;5017522;28;20053;-74
2023/05/15 10:30:10;;;;;;;9.23;4.70;;;;;;;;;;5017662;28;20386;-74
2023/05/15 10:32:37;;;;;;;8.48;5.22;;;;;;;;;;5032954;28;20095;-72
2023/05/15 10:35:03;;;;;;;8.50;5.35;;;;;;;;;;5014514;28;20041;-73
2023/05/15 10:37:30;;;;;;;7.53;5.75;;;;;;;;;;5032314;28;20080;-73
2023/05/15 10:39:57;;;;;;;8.50;5.40;;;;;;;;;;5032166;28;20045;-73
2023/05/15 10:42:25;;;;;;;7.30;4.60;;;;;;;;;;5032220;28;20085;-73
2023/05/15 10:44:55;;;;;;;7.07;5.25;;;;;;;;;;5032693;28;20487;-73
2023/05/15 10:47:21;;;;;;;8.10;5.15;;;;;;;;;;5029791;28;20426;-72
2023/05/15 10:49:47;;;;;;;6.82;5.35;;;;;;;;;;5013730;28;20102;-73
2023/05/15 10:52:13;;;;;;;8.55;4.85;;;;;;;;;;5032248;28;20125;-73
2023/05/15 10:54:39;;;;;;;9.35;5.28;;;;;;;;;;5031766;28;20045;-72
2023/05/15 10:57:05;;;;;;;8.35;5.40;;;;;;;;;;5031909;28;20080;-72
2023/05/15 10:59:34;;;;;;;8.10;5.30;;;;;;;;;;5030748;28;20045;-72
2023/05/15 11:02:18;;;;;;;8.55;4.88;;;;;;;;;;5031461;28;20091;-72
2023/05/15 11:04:44;;;;;;;7.10;4.45;;;;;;;;;;5032164;28;20052;-72
2023/05/15 11:07:12;;;;;;;7.55;5.28;;;;;;;;;;5030672;28;20045;-72
2023/05/15 11:09:39;;;;;;;7.82;5.13;;;;;;;;;;5032002;28;20410;-72
2023/05/15 11:12:06;;;;;;;7.72;5.40;;;;;;;;;;5032241;28;20055;-71
2023/05/15 11:14:36;;;;;;;6.53;4.80;;;;;;;;;;5032510;28;20084;-72
2023/05/15 11:17:06;;;;;;;7.78;5.07;;;;;;;;;;5016810;28;20048;-72
2023/05/15 11:19:36;;;;;;;10.00;5.10;;;;;;;;;;5033293;28;20184;-71
2023/05/15 11:22:08;;;;;;;8.18;4.80;;;;;;;;;;5032568;28;20164;-74
2023/05/15 11:24:51;;;;;;;6.95;4.70;;;;;;;;;;5030094;28;20131;-73
2023/05/15 11:27:22;;;;;;;6.30;4.50;;;;;;;;;;5019779;28;20099;-74
2023/05/15 11:30:06;;;;;;;7.32;5.10;;;;;;;;;;5013816;28;20103;-74
2023/05/15 11:32:42;;;;;;;7.55;5.22;;;;;;;;;;5014564;28;20206;-73
2023/05/15 11:35:13;;;;;;;6.07;4.60;;;;;;;;;;5031346;28;20498;-73
2023/05/15 11:37:48;;;;;;;7.47;5.03;;;;;;;;;;5033673;28;20398;-72
2023/05/15 11:40:18;;;;;;;7.03;5.57;;;;;;;;;;5034708;28;20048;-74
2023/05/15 11:43:04;;;;;;;9.35;5.47;;;;;;;;;;5050433;28;20520;-73
2023/05/15 11:45:30;;;;;;;;;;;;;;;;;;5054963;28;20041;-72
2023/05/15 11:47:56;;;;;;;8.40;5.70;;;;;;;;;;5022046;28;19998;-73
2023/05/15 11:50:24;;;;;;;8.60;5.78;;;;;;;;;;5036515;28;20367;-74
2023/05/15 11:52:50;;;;;;;9.52;6.38;;;;;;;;;;5015826;28;20049;-74
2023/05/15 11:55:18;;;;;;;7.93;6.07;;;;;;;;;;5032977;28;20121;-74
2023/05/15 11:57:47;;;;;;;8.32;6.00;;;;;;;;;;5012317;28;20061;-75
2023/05/15 12:00:14;;;;;;;6.82;5.90;;;;;;;;;;5020503;28;20042;-74
2023/05/15 12:02:40;;;;;;;10.98;6.47;;;;;;;;;;5031831;28;20049;-74
2023/05/15 12:05:07;;;;;;;11.07;6.40;;;;;;;;;;5033580;28;20128;-73
2023/05/15 12:07:43;;;;;;;8.20;6.35;;;;;;;;;;5002143;28;20029;-73
2023/05/15 12:10:10;;;;;;;7.45;6.18;;;;;;;;;;5033227;28;20051;-73
2023/05/15 12:12:38;;;;;;;8.50;6.45;;;;;;;;;;5028448;28;20041;-74
2023/05/15 12:15:04;;;;;;;8.27;6.93;;;;;;;;;;5034698;28;20061;-73
2023/05/15 12:17:32;;;;;;;8.45;5.88;;;;;;;;;;5031828;28;20474;-74
2023/05/15 12:19:59;;;;;;;7.72;5.40;;;;;;;;;;5032790;28;20492;-74
2023/05/15 12:22:25;;;;;;;7.03;5.68;;;;;;;;;;5020137;28;20049;-75
2023/05/15 12:24:51;;;;;;;7.75;5.95;;;;;;;;;;5025310;28;20083;-76
2023/05/15 12:27:17;;;;;;;8.55;6.60;;;;;;;;;;5032326;28;20099;-75
2023/05/15 12:29:43;;;;;;;8.75;6.50;;;;;;;;;;5028003;28;20049;-75
2023/05/15 12:32:09;;;;;;;9.32;6.38;;;;;;;;;;5031931;28;20484;-75
2023/05/15 12:34:35;;;;;;;8.07;6.47;;;;;;;;;;5032198;28;20435;-75
2023/05/15 12:37:02;;;;;;;8.20;6.25;;;;;;;;;;5035804;28;20044;-73
2023/05/15 12:39:28;;;;;;;7.75;5.60;;;;;;;;;;5028741;28;20045;-72
2023/05/15 12:41:57;;;;;;;9.50;5.80;;;;;;;;;;5032345;28;20136;-73
2023/05/15 12:44:26;;;;;;;8.75;6.30;;;;;;;;;;5032843;28;20041;-73
2023/05/15 12:46:54;;;;;;;10.18;7.15;;;;;;;;;;5014940;28;20053;-74
2023/05/15 12:49:21;;;;;;;8.75;7.40;;;;;;;;;;5031153;28;20110;-73
2023/05/15 12:51:47;;;;;;;9.20;6.82;;;;;;;;;;5030052;28;20375;-73
2023/05/15 12:54:17;;;;;;;8.25;6.90;;;;;;;;;;5014914;28;20467;-74
2023/05/15 12:56:44;;;;;;;7.70;6.90;;;;;;;;;;5014745;28;20194;-74
2023/05/15 12:59:10;;;;;;;9.82;6.97;;;;;;;;;;5013358;28;20045;-74
2023/05/15 13:01:36;;;;;;;10.30;6.80;;;;;;;;;;5026115;28;20425;-74
2023/05/15 13:04:02;;;;;;;7.90;6.00;;;;;;;;;;5039402;28;20503;-74
2023/05/15 13:06:29;;;;;;;6.75;5.50;;;;;;;;;;5036728;28;20124;-74
2023/05/15 13:08:55;;;;;;;7.35;5.55;;;;;;;;;;5032197;28;20037;-75
2023/05/15 13:11:21;;;;;;;6.85;4.90;;;;;;;;;;5028307;28;20095;-74
2023/05/15 13:13:48;;;;;;;7.30;5.65;;;;;;;;;;5032110;28;20050;-74
2023/05/15 13:16:25;;;;;;;9.50;5.50;;;;;;;;;;5032567;28;20402;-74
2023/05/15 13:18:51;;;;;;;7.70;5.18;;;;;;;;;;5030465;28;20044;-74
2023/05/15 13:21:18;;;;;;;8.07;5.57;;;;;;;;;;5032051;28;20041;-73
2023/05/15 13:23:44;;;;;;;6.28;4.90;;;;;;;;;;5030743;28;20375;-73
2023/05/15 13:26:10;;;;;;;6.18;5.18;;;;;;;;;;5029868;28;20072;-73
2023/05/15 13:28:36;;;;;;;8.07;5.07;;;;;;;;;;5031987;28;20049;-75
2023/05/15 13:31:02;;;;;;;7.38;4.72;;;;;;;;;;5031923;28;20064;-73
2023/05/15 13:33:28;;;;;;;7.05;5.10;;;;;;;;;;5028452;28;20060;-73
2023/05/15 13:35:56;;;;;;;7.95;5.60;;;;;;;;;;4996581;28;20406;-74
2023/05/15 13:38:22;;;;;;;11.77;5.40;;;;;;;;;;5042503;28;20099;-75
2023/05/15 13:40:48;;;;;;;6.38;5.45;;;;;;;;;;5028740;28;20160;-76
2023/05/15 13:43:14;;;;;;;7.80;5.25;;;;;;;;;;5014425;28;20041;-74
2023/05/15 13:45:40;;;;;;;8.20;6.40;;;;;;;;;;5004051;28;20037;-75
2023/05/15 13:48:06;;;;;;;9.43;6.15;;;;;;;;;;5024016;28;20126;-74
2023/05/15 13:50:32;;;;;;;7.78;6.35;;;;;;;;;;5035000;28;20049;-75
2023/05/15 13:52:58;;;;;;;8.07;6.05;;;;;;;;;;5017065;28;20069;-75
2023/05/15 13:55:25;;;;;;;8.85;6.68;;;;;;;;;;5030547;28;20049;-75
2023/05/15 13:57:51;;;;;;;7.97;6.32;;;;;;;;;;5038020;28;20049;-74
2023/05/15 14:00:18;;;;;;;7.53;5.70;;;;;;;;;;5033847;28;20092;-75
2023/05/15 14:02:44;;;;;;;9.15;5.82;;;;;;;;;;5035150;28;20115;-75
2023/05/15 14:05:12;;;;;;;8.07;6.13;;;;;;;;;;5017917;28;20049;-74
2023/05/15 14:07:39;;;;;;;7.05;5.57;;;;;;;;;;5013944;28;20049;-75
2023/05/15 14:10:05;;;;;;;11.38;6.20;;;;;;;;;;5031102;28;20045;-75
2023/05/15 14:12:31;;;;;;;8.05;5.95;;;;;;;;;;5033151;28;20049;-75
2023/05/15 14:14:57;;;;;;;11.40;6.03;;;;;;;;;;5033419;28;20505;-75
2023/05/15 14:17:24;;;;;;;7.97;5.78;;;;;;;;;;5030198;28;20045;-75
2023/05/15 14:19:50;;;;;;;8.38;6.05;;;;;;;;;;5030151;28;20045;-76
2023/05/15 14:22:16;;;;;;;7.15;5.80;;;;;;;;;;5031367;28;20503;-75
2023/05/15 14:24:42;;;;;;;8.18;5.32;;;;;;;;;;5031464;28;20046;-75
2023/05/15 14:27:08;;;;;;;7.45;5.00;;;;;;;;;;5030718;28;20494;-76
2023/05/15 14:29:35;;;;;;;6.10;4.50;;;;;;;;;;5027704;28;20049;-75